Terminal Aerodrome Forecast
Issued by NWS

Home | Current Version | Previous Version | Text Only | Print | Product List | Glossary On
Versions: 1 2 3 4 5 6 7 8 9 10 11 12 13 14 15 16 17 18 19 20 21
000
FTUS44 KLZK 171300 AAA
TAFLIT
TAF AMD
KLIT 171352Z 1714/1812 05004KT P6SM SCT025
     FM171500 12004KT P6SM BKN250
     FM171700 14005KT P6SM SCT040
     FM180000 VRB04KT P6SM SCT120 BKN250=

USA.gov is the U.S. government's official web portal to all federal, state and local government web resources and services.